createdAt,value
2022-11-10T00:00:55.780Z,0
2022-11-10T00:01:58.855Z,0
2022-11-10T00:03:01.644Z,0
2022-11-10T00:04:04.783Z,0
2022-11-10T00:05:08.417Z,0
2022-11-10T00:06:11.501Z,0
2022-11-10T00:07:15.183Z,0
2022-11-10T00:08:18.148Z,0
2022-11-10T00:09:21.746Z,0
2022-11-10T00:10:24.929Z,0
2022-11-10T00:11:28.081Z,0
2022-11-10T00:12:30.686Z,0
2022-11-10T00:13:33.841Z,0
2022-11-10T00:14:36.893Z,0
2022-11-10T00:15:40.088Z,0
2022-11-10T00:16:44.164Z,0
2022-11-10T00:17:46.781Z,0
2022-11-10T00:18:50.498Z,0
2022-11-10T00:19:53.221Z,0
2022-11-10T00:20:56.757Z,0
2022-11-10T00:22:00.127Z,0
2022-11-10T00:23:03.299Z,0
2022-11-10T00:24:06.560Z,0
2022-11-10T00:25:09.711Z,0
2022-11-10T00:26:12.853Z,0
2022-11-10T00:27:16.242Z,0
2022-11-10T00:28:19.524Z,0
2022-11-10T00:29:22.120Z,0
2022-11-10T00:30:25.576Z,0
2022-11-10T00:31:28.810Z,0
2022-11-10T00:32:31.802Z,0
2022-11-10T00:33:34.870Z,0
2022-11-10T00:34:37.949Z,0
2022-11-10T00:35:41.400Z,0
2022-11-10T00:36:44.886Z,0
2022-11-10T00:37:48.231Z,0
2022-11-10T00:38:51.030Z,0
2022-11-10T00:39:53.820Z,0
2022-11-10T00:40:57.120Z,0
2022-11-10T00:41:59.836Z,0
2022-11-10T00:43:02.905Z,0
2022-11-10T00:44:06.083Z,0
2022-11-10T00:45:08.779Z,0
2022-11-10T00:46:11.513Z,0
2022-11-10T00:47:13.810Z,0
2022-11-10T00:48:17.186Z,0
2022-11-10T00:49:19.716Z,0
2022-11-10T00:50:21.760Z,0
2022-11-10T00:51:25.384Z,0
2022-11-10T00:52:28.943Z,0
2022-11-10T00:53:32.430Z,0
2022-11-10T00:54:35.298Z,0
2022-11-10T00:55:38.371Z,0
2022-11-10T00:56:42.114Z,0
2022-11-10T00:57:44.631Z,0
2022-11-10T00:58:47.711Z,0
2022-11-10T00:59:50.570Z,0
2022-11-10T01:00:54.021Z,0
2022-11-10T01:01:57.364Z,0
2022-11-10T01:03:00.761Z,0
2022-11-10T01:04:03.905Z,0
2022-11-10T01:05:06.160Z,0
2022-11-10T01:06:09.336Z,0
2022-11-10T01:07:12.810Z,0
2022-11-10T01:08:16.415Z,0
2022-11-10T01:09:19.831Z,0
2022-11-10T01:10:23.008Z,0
2022-11-10T01:11:25.877Z,0
2022-11-10T01:12:29.308Z,0
2022-11-10T01:13:32.457Z,0
2022-11-10T01:14:35.720Z,0
2022-11-10T01:15:38.544Z,0
2022-11-10T01:16:41.798Z,0
2022-11-10T01:17:44.815Z,0
2022-11-10T01:18:47.918Z,0
2022-11-10T01:19:51.121Z,0
2022-11-10T01:20:53.922Z,0
2022-11-10T01:21:56.525Z,0
2022-11-10T01:22:59.678Z,0
2022-11-10T01:24:03.167Z,0
2022-11-10T01:25:06.304Z,0
2022-11-10T01:26:09.778Z,0
2022-11-10T01:27:13.519Z,0
2022-11-10T01:28:16.337Z,0
2022-11-10T01:29:19.682Z,0
2022-11-10T01:30:23.397Z,0
2022-11-10T01:31:27.114Z,0
2022-11-10T01:32:30.865Z,0
2022-11-10T01:33:34.610Z,0
2022-11-10T01:34:37.755Z,0
2022-11-10T01:35:41.239Z,0
2022-11-10T01:36:43.590Z,0
2022-11-10T01:37:46.664Z,0
2022-11-10T01:38:49.937Z,0
2022-11-10T01:39:53.452Z,0
2022-11-10T01:40:57.280Z,0
2022-11-10T01:42:00.542Z,0
2022-11-10T01:43:03.625Z,0
2022-11-10T01:44:06.730Z,0
2022-11-10T01:45:09.551Z,0
2022-11-10T01:46:12.277Z,0
2022-11-10T01:47:15.268Z,0
2022-11-10T01:48:18.169Z,0
2022-11-10T01:49:21.269Z,0
2022-11-10T01:50:24.400Z,0
2022-11-10T01:51:27.488Z,0
2022-11-10T01:52:31.213Z,0
2022-11-10T01:53:33.919Z,0
2022-11-10T01:54:37.064Z,0
2022-11-10T01:55:40.619Z,0
2022-11-10T01:56:43.136Z,0
2022-11-10T01:57:46.561Z,0
2022-11-10T01:58:49.912Z,0
2022-11-10T01:59:53.335Z,0
2022-11-10T02:00:56.379Z,0
2022-11-10T02:01:59.709Z,0
2022-11-10T02:03:02.425Z,0
2022-11-10T02:04:04.954Z,0
2022-11-10T02:05:08.257Z,0
2022-11-10T02:06:11.648Z,0
2022-11-10T02:07:15.114Z,0
2022-11-10T02:08:18.198Z,0
2022-11-10T02:09:21.837Z,0
2022-11-10T02:10:24.716Z,0
2022-11-10T02:11:28.134Z,0
2022-11-10T02:12:30.395Z,0
2022-11-10T02:13:33.205Z,0
2022-11-10T02:14:35.726Z,0
2022-11-10T02:15:39.175Z,0
2022-11-10T02:16:42.526Z,0
2022-11-10T02:17:45.882Z,0
2022-11-10T02:18:49.263Z,0
2022-11-10T02:19:52.340Z,0
2022-11-10T02:20:55.729Z,0
2022-11-10T02:21:58.854Z,0
2022-11-10T02:23:01.948Z,0
2022-11-10T02:24:04.823Z,0
2022-11-10T02:25:07.902Z,0
2022-11-10T02:26:10.695Z,0
2022-11-10T02:27:14.106Z,0
2022-11-10T02:28:16.697Z,0
2022-11-10T02:29:19.414Z,0
2022-11-10T02:30:26.572Z,0
2022-11-10T02:31:30.651Z,0
2022-11-10T02:32:33.149Z,0
2022-11-10T02:33:35.851Z,0
2022-11-10T02:34:39.119Z,0
2022-11-10T02:35:41.922Z,0
2022-11-10T02:36:44.956Z,0
2022-11-10T02:37:48.073Z,0
2022-11-10T02:38:51.521Z,0
2022-11-10T02:39:54.329Z,0
2022-11-10T02:40:57.132Z,0
2022-11-10T02:41:59.646Z,0
2022-11-10T02:43:02.516Z,0
2022-11-10T02:44:05.238Z,0
2022-11-10T02:45:07.464Z,0
2022-11-10T02:46:09.964Z,0
2022-11-10T02:47:13.349Z,0
2022-11-10T02:48:16.070Z,0
2022-11-10T02:49:18.508Z,0
2022-11-10T02:50:22.246Z,0
2022-11-10T02:51:25.696Z,0
2022-11-10T02:52:28.873Z,0
2022-11-10T02:53:31.165Z,0
2022-11-10T02:54:35.188Z,0
2022-11-10T02:55:37.793Z,0
2022-11-10T02:56:41.327Z,0
2022-11-10T02:57:44.482Z,0
2022-11-10T02:58:47.785Z,0
2022-11-10T02:59:50.652Z,0
2022-11-10T03:00:53.518Z,0
2022-11-10T03:01:56.881Z,0
2022-11-10T03:03:00.375Z,0
2022-11-10T03:04:03.449Z,0
2022-11-10T03:05:06.069Z,0
2022-11-10T03:06:09.229Z,0
2022-11-10T03:07:12.043Z,0
2022-11-10T03:08:15.298Z,0
2022-11-10T03:09:17.659Z,0
2022-11-10T03:10:20.832Z,0
2022-11-10T03:11:25.775Z,0
2022-11-10T03:12:35.184Z,0
2022-11-10T03:13:58.821Z,0
2022-11-10T03:15:05.807Z,0
2022-11-10T03:16:08.338Z,0
2022-11-10T03:17:11.279Z,0
2022-11-10T03:18:14.473Z,0
2022-11-10T03:19:17.474Z,0
2022-11-10T03:20:20.690Z,0
2022-11-10T03:21:23.770Z,0
2022-11-10T03:22:26.099Z,0
2022-11-10T03:23:29.287Z,0
2022-11-10T03:24:32.126Z,0
2022-11-10T03:25:34.912Z,0
2022-11-10T03:26:38.000Z,0
2022-11-10T03:27:40.717Z,0
2022-11-10T03:28:44.243Z,0
2022-11-10T03:29:47.312Z,0
2022-11-10T03:30:50.991Z,0
2022-11-10T03:31:54.727Z,0
2022-11-10T03:32:57.530Z,0
2022-11-10T03:34:00.694Z,0
2022-11-10T03:35:04.427Z,0
2022-11-10T03:36:07.035Z,0
2022-11-10T03:37:10.127Z,0
2022-11-10T03:38:13.128Z,0
2022-11-10T03:39:16.250Z,0
2022-11-10T03:40:19.286Z,0
2022-11-10T03:41:22.164Z,0
2022-11-10T03:42:24.741Z,0
2022-11-10T03:43:27.460Z,0
2022-11-10T03:44:30.727Z,0
2022-11-10T03:45:33.802Z,0
2022-11-10T03:46:37.035Z,0
2022-11-10T03:47:53.444Z,0
2022-11-10T03:48:56.900Z,0
2022-11-10T03:49:59.995Z,0
2022-11-10T03:51:03.266Z,0
2022-11-10T03:52:06.263Z,0
2022-11-10T03:53:09.129Z,0
2022-11-10T03:54:12.595Z,0
2022-11-10T03:55:15.898Z,0
2022-11-10T03:56:18.156Z,0
2022-11-10T03:57:21.342Z,0
2022-11-10T03:58:24.337Z,0
2022-11-10T03:59:26.859Z,0
2022-11-10T04:00:29.943Z,0
2022-11-10T04:01:33.315Z,0
2022-11-10T04:02:37.007Z,0
2022-11-10T04:03:39.819Z,0
2022-11-10T04:04:43.157Z,0
2022-11-10T04:05:46.831Z,0
2022-11-10T04:06:49.641Z,0
2022-11-10T04:07:53.709Z,0
2022-11-10T04:08:56.812Z,0
2022-11-10T04:09:59.966Z,0
2022-11-10T04:11:02.426Z,0
2022-11-10T04:12:05.550Z,0
2022-11-10T04:13:09.422Z,0
2022-11-10T04:14:11.742Z,0
2022-11-10T04:15:14.935Z,0
2022-11-10T04:16:18.605Z,0
2022-11-10T04:17:22.036Z,0
2022-11-10T04:18:25.436Z,0
2022-11-10T04:19:28.803Z,0
2022-11-10T04:20:31.795Z,0
2022-11-10T04:21:35.278Z,0
2022-11-10T04:22:38.742Z,0
2022-11-10T04:23:41.185Z,0
2022-11-10T04:24:44.362Z,0
2022-11-10T04:25:47.635Z,0
2022-11-10T04:26:50.743Z,0
2022-11-10T04:27:53.859Z,0
2022-11-10T04:28:56.883Z,0
2022-11-10T04:29:59.870Z,0
2022-11-10T04:31:02.678Z,0
2022-11-10T04:32:05.967Z,0
2022-11-10T04:33:08.957Z,0
2022-11-10T04:34:11.811Z,0
2022-11-10T04:35:14.335Z,0
2022-11-10T04:36:16.882Z,0
2022-11-10T04:37:19.978Z,0
2022-11-10T04:38:23.135Z,0
2022-11-10T04:39:26.234Z,0
2022-11-10T04:40:29.463Z,0
2022-11-10T04:41:32.634Z,0
2022-11-10T04:42:35.718Z,0
2022-11-10T04:43:38.467Z,0
2022-11-10T04:44:41.933Z,0
2022-11-10T04:45:44.724Z,0
2022-11-10T04:46:47.801Z,0
2022-11-10T04:47:50.227Z,0
2022-11-10T04:48:53.326Z,0
2022-11-10T04:49:56.450Z,0
2022-11-10T04:50:59.073Z,0
2022-11-10T04:52:02.397Z,0
2022-11-10T04:53:05.859Z,0
2022-11-10T04:54:09.296Z,0
2022-11-10T04:55:13.035Z,0
2022-11-10T04:56:15.935Z,0
2022-11-10T04:57:19.458Z,0
2022-11-10T04:58:22.013Z,0
2022-11-10T04:59:25.305Z,0
2022-11-10T05:00:29.172Z,0
2022-11-10T05:01:32.579Z,0
2022-11-10T05:02:39.525Z,0
2022-11-10T05:03:42.959Z,0
2022-11-10T05:04:46.324Z,0
2022-11-10T05:05:49.816Z,0
2022-11-10T05:06:52.643Z,0
2022-11-10T05:07:56.006Z,0
2022-11-10T05:09:00.039Z,0
2022-11-10T05:10:03.080Z,0
2022-11-10T05:11:06.828Z,0
2022-11-10T05:12:09.903Z,0
2022-11-10T05:13:12.760Z,0
2022-11-10T05:14:15.824Z,0
2022-11-10T05:15:18.748Z,0
2022-11-10T05:16:21.935Z,0
2022-11-10T05:17:25.201Z,0
2022-11-10T05:18:28.087Z,0
2022-11-10T05:19:30.802Z,0
2022-11-10T05:20:33.947Z,0
2022-11-10T05:21:37.093Z,0
2022-11-10T05:22:39.631Z,0
2022-11-10T05:23:51.466Z,0
2022-11-10T05:24:54.607Z,0
2022-11-10T05:25:57.611Z,0
2022-11-10T05:27:01.332Z,0
2022-11-10T05:28:04.405Z,0
2022-11-10T05:29:07.409Z,0
2022-11-10T05:30:10.593Z,0
2022-11-10T05:31:13.742Z,0
2022-11-10T05:32:17.212Z,0
2022-11-10T05:33:20.970Z,0
2022-11-10T05:34:27.016Z,0
2022-11-10T05:35:29.545Z,0
2022-11-10T05:36:32.816Z,0
2022-11-10T05:37:35.748Z,0
2022-11-10T05:38:43.116Z,0
2022-11-10T05:39:46.818Z,0
2022-11-10T05:40:50.563Z,0
2022-11-10T05:41:52.727Z,0
2022-11-10T05:42:55.875Z,0
2022-11-10T05:43:58.773Z,0
2022-11-10T05:45:01.566Z,0
2022-11-10T05:46:04.936Z,0
2022-11-10T05:47:08.162Z,0
2022-11-10T05:48:10.977Z,0
2022-11-10T05:49:13.761Z,0
2022-11-10T05:50:16.843Z,0
2022-11-10T05:51:19.974Z,0
2022-11-10T05:52:23.069Z,4
2022-11-10T05:53:26.207Z,4
2022-11-10T05:54:29.377Z,0
2022-11-10T05:55:32.367Z,4
2022-11-10T05:56:35.724Z,4
2022-11-10T05:57:37.613Z,4
2022-11-10T05:58:40.970Z,4
2022-11-10T05:59:42.855Z,8
2022-11-10T06:00:45.426Z,8
2022-11-10T06:01:48.812Z,12
2022-11-10T06:02:51.578Z,12
2022-11-10T06:03:55.260Z,12
2022-11-10T06:04:58.319Z,16
2022-11-10T06:06:00.744Z,20
2022-11-10T06:07:03.310Z,20
2022-11-10T06:08:07.373Z,24
2022-11-10T06:09:10.842Z,24
2022-11-10T06:10:13.895Z,24
2022-11-10T06:11:16.655Z,28
2022-11-10T06:12:20.472Z,32
2022-11-10T06:13:24.224Z,48
2022-11-10T06:14:28.013Z,52
2022-11-10T06:15:31.172Z,56
2022-11-10T06:16:34.439Z,60
2022-11-10T06:17:37.538Z,72
2022-11-10T06:18:40.317Z,92
2022-11-10T06:19:42.854Z,108
2022-11-10T06:20:45.368Z,124
2022-11-10T06:21:48.517Z,152
2022-11-10T06:23:08.109Z,204
2022-11-10T06:24:11.465Z,220
2022-11-10T06:25:14.879Z,252
2022-11-10T06:26:17.323Z,296
2022-11-10T06:27:20.507Z,344
2022-11-10T06:28:24.281Z,356
2022-11-10T06:29:27.630Z,396
2022-11-10T06:30:30.639Z,456
2022-11-10T06:31:33.714Z,484
2022-11-10T06:32:36.867Z,500
2022-11-10T06:33:39.686Z,532
2022-11-10T06:34:42.445Z,596
2022-11-10T06:35:45.292Z,636
2022-11-10T06:36:49.009Z,652
2022-11-10T06:37:52.353Z,656
2022-11-10T06:38:55.425Z,680
2022-11-10T06:39:57.615Z,640
2022-11-10T06:41:01.096Z,656
2022-11-10T06:42:04.093Z,856
2022-11-10T06:43:07.194Z,1036
2022-11-10T06:44:10.370Z,1184
2022-11-10T06:45:13.256Z,1280
2022-11-10T06:46:16.360Z,1368
2022-11-10T06:47:18.692Z,1472
2022-11-10T06:48:22.062Z,1440
2022-11-10T06:49:24.880Z,1164
2022-11-10T06:50:27.719Z,1032
2022-11-10T06:51:31.158Z,1192
2022-11-10T06:52:33.862Z,1224
2022-11-10T06:53:36.657Z,1220
2022-11-10T06:54:39.651Z,1376
2022-11-10T06:55:41.817Z,1368
2022-11-10T06:56:45.302Z,1224
2022-11-10T06:57:48.136Z,1404
2022-11-10T06:58:51.021Z,1348
2022-11-10T06:59:53.913Z,1360
2022-11-10T07:00:57.263Z,1304
2022-11-10T07:02:00.537Z,1536
2022-11-10T07:03:03.672Z,1452
2022-11-10T07:04:18.998Z,1540
2022-11-10T07:05:23.520Z,1668
2022-11-10T07:06:26.488Z,1968
2022-11-10T07:07:30.246Z,1860
2022-11-10T07:08:33.067Z,2032
2022-11-10T07:09:35.600Z,2032
2022-11-10T07:10:38.195Z,2364
2022-11-10T07:11:40.708Z,3152
2022-11-10T07:12:44.100Z,2740
2022-11-10T07:13:47.251Z,2508
2022-11-10T07:14:49.761Z,1732
2022-11-10T07:15:52.931Z,1768
2022-11-10T07:16:55.185Z,1924
2022-11-10T07:17:58.066Z,1676
2022-11-10T07:19:00.796Z,1680
2022-11-10T07:20:03.891Z,1796
2022-11-10T07:21:06.720Z,1880
2022-11-10T07:22:11.341Z,2160
2022-11-10T07:23:14.211Z,1808
2022-11-10T07:24:17.484Z,2320
2022-11-10T07:25:20.616Z,1976
2022-11-10T07:26:24.429Z,1768
2022-11-10T07:27:27.779Z,1536
2022-11-10T07:28:31.072Z,1744
2022-11-10T07:29:34.116Z,1920
2022-11-10T07:30:36.660Z,1680
2022-11-10T07:31:40.372Z,1632
2022-11-10T07:32:43.166Z,1388
2022-11-10T07:33:49.390Z,1556
2022-11-10T07:34:57.805Z,1832
2022-11-10T07:36:00.332Z,1636
2022-11-10T07:37:03.173Z,2028
2022-11-10T07:38:06.609Z,3308
2022-11-10T07:39:09.786Z,2932
2022-11-10T07:40:12.670Z,1800
2022-11-10T07:41:15.266Z,1440
2022-11-10T07:42:18.610Z,1324
2022-11-10T07:43:21.911Z,1340
2022-11-10T07:44:27.064Z,1492
2022-11-10T07:45:30.715Z,2016
2022-11-10T07:46:34.710Z,2872
2022-11-10T07:47:37.806Z,4968
2022-11-10T07:48:41.540Z,3528
2022-11-10T07:49:45.235Z,2728
2022-11-10T07:50:48.611Z,2844
2022-11-10T07:51:51.415Z,3784
2022-11-10T07:52:54.890Z,5968
2022-11-10T07:53:57.897Z,6140
2022-11-10T07:55:00.731Z,4016
2022-11-10T07:56:04.746Z,4200
2022-11-10T07:57:07.906Z,5936
2022-11-10T07:58:11.013Z,7032
2022-11-10T07:59:14.155Z,7432
2022-11-10T08:00:17.843Z,9188
2022-11-10T08:01:20.887Z,8272
2022-11-10T08:02:24.625Z,9660
2022-11-10T08:03:28.419Z,8688
2022-11-10T08:04:30.103Z,9348
2022-11-10T08:05:32.903Z,8360
2022-11-10T08:06:36.614Z,9584
2022-11-10T08:07:40.985Z,11592
2022-11-10T08:08:45.543Z,14536
2022-11-10T08:09:48.872Z,14856
2022-11-10T08:10:51.704Z,13512
2022-11-10T08:11:55.235Z,13496
2022-11-10T08:12:58.305Z,12904
2022-11-10T08:14:02.027Z,16024
2022-11-10T08:15:04.919Z,14408
2022-11-10T08:16:08.312Z,11116
2022-11-10T08:17:11.662Z,11216
2022-11-10T08:18:15.285Z,11832
2022-11-10T08:19:18.716Z,11032
2022-11-10T08:20:21.307Z,9852
2022-11-10T08:21:24.456Z,9456
2022-11-10T08:22:27.638Z,9340
2022-11-10T08:23:31.293Z,5404
2022-11-10T08:24:34.786Z,3956
2022-11-10T08:25:37.960Z,4132
2022-11-10T08:26:40.963Z,4332
2022-11-10T08:27:43.827Z,4636
2022-11-10T08:28:46.645Z,4308
2022-11-10T08:29:50.004Z,4392
2022-11-10T08:30:52.810Z,4500
2022-11-10T08:31:56.883Z,4784
2022-11-10T08:32:59.703Z,3900
2022-11-10T08:34:02.517Z,3172
2022-11-10T08:35:06.313Z,3448
2022-11-10T08:36:09.318Z,3888
2022-11-10T08:37:12.448Z,3800
2022-11-10T08:38:16.185Z,4536
2022-11-10T08:39:36.485Z,5660
2022-11-10T08:40:42.913Z,8616
2022-11-10T08:41:46.079Z,8668
2022-11-10T08:42:49.614Z,31296
2022-11-10T08:43:52.689Z,19424
2022-11-10T08:44:55.495Z,15064
2022-11-10T08:45:58.209Z,7472
2022-11-10T08:47:01.986Z,8956
2022-11-10T08:48:04.586Z,34208
2022-11-10T08:49:07.485Z,28352
2022-11-10T08:50:11.341Z,12944
2022-11-10T08:51:13.783Z,9752
2022-11-10T08:52:16.660Z,16344
2022-11-10T08:53:19.677Z,16732
2022-11-10T08:54:25.334Z,16168
2022-11-10T08:55:28.790Z,10476
2022-11-10T08:56:32.252Z,6184
2022-11-10T08:57:36.104Z,5720
2022-11-10T08:58:47.422Z,9276
2022-11-10T08:59:56.763Z,7916
2022-11-10T09:00:59.562Z,6692
2022-11-10T09:02:03.012Z,6908
2022-11-10T09:03:06.711Z,9112
2022-11-10T09:04:10.414Z,11736
2022-11-10T09:05:14.134Z,10816
2022-11-10T09:06:16.934Z,6496
2022-11-10T09:07:19.555Z,6104
2022-11-10T09:08:23.010Z,7200
2022-11-10T09:09:25.834Z,6568
2022-11-10T09:10:28.888Z,5524
2022-11-10T09:11:31.451Z,7692
2022-11-10T09:12:35.398Z,11048
2022-11-10T09:13:38.561Z,9140
2022-11-10T09:14:41.556Z,9856
2022-11-10T09:15:44.904Z,9452
2022-11-10T09:16:48.632Z,8532
2022-11-10T09:17:51.791Z,21760
2022-11-10T09:18:55.282Z,6476
2022-11-10T09:19:58.424Z,5000
2022-11-10T09:21:02.921Z,5380
2022-11-10T09:22:05.452Z,7820
2022-11-10T09:23:07.985Z,11136
2022-11-10T09:24:10.867Z,12268
2022-11-10T09:25:13.473Z,13760
2022-11-10T09:26:16.464Z,14852
2022-11-10T09:27:19.541Z,10856
2022-11-10T09:28:22.685Z,7620
2022-11-10T09:29:26.073Z,8176
2022-11-10T09:30:29.072Z,5492
2022-11-10T09:31:32.239Z,5920
2022-11-10T09:32:35.421Z,5244
2022-11-10T09:33:38.871Z,4684
2022-11-10T09:34:42.436Z,4624
2022-11-10T09:35:54.825Z,4436
2022-11-10T09:36:58.279Z,4532
2022-11-10T09:38:01.723Z,7516
2022-11-10T09:39:05.017Z,7684
2022-11-10T09:40:12.687Z,5212
2022-11-10T09:41:16.288Z,5288
2022-11-10T09:42:19.919Z,7524
2022-11-10T09:43:23.543Z,6808
2022-11-10T09:44:27.613Z,5280
2022-11-10T09:45:32.854Z,6376
2022-11-10T09:46:42.079Z,5764
2022-11-10T09:48:00.898Z,5924
2022-11-10T09:49:04.265Z,6540
2022-11-10T09:50:07.732Z,7476
2022-11-10T09:51:11.583Z,5068
2022-11-10T09:52:14.473Z,5168
2022-11-10T09:53:17.346Z,4384
2022-11-10T09:54:20.450Z,4760
2022-11-10T09:55:23.062Z,4456
2022-11-10T09:56:26.147Z,3196
2022-11-10T09:57:29.232Z,3964
2022-11-10T09:58:32.016Z,3192
2022-11-10T09:59:36.328Z,3468
2022-11-10T10:00:39.446Z,4444
2022-11-10T10:01:42.219Z,3576
2022-11-10T10:02:45.692Z,4088
2022-11-10T10:03:48.685Z,6580
2022-11-10T10:04:52.408Z,8860
2022-11-10T10:05:56.468Z,11248
2022-11-10T10:07:10.522Z,7648
2022-11-10T10:08:15.800Z,7552
2022-11-10T10:09:18.958Z,7212
2022-11-10T10:10:22.418Z,7380
2022-11-10T10:11:25.206Z,9560
2022-11-10T10:12:28.009Z,14312
2022-11-10T10:13:31.103Z,16768
2022-11-10T10:14:33.979Z,13776
2022-11-10T10:15:37.520Z,11668
2022-11-10T10:16:40.623Z,8888
2022-11-10T10:17:43.359Z,8612
2022-11-10T10:18:45.896Z,11496
2022-11-10T10:19:48.737Z,9984
2022-11-10T10:20:51.529Z,11652
2022-11-10T10:21:55.592Z,10328
2022-11-10T10:22:59.328Z,8992
2022-11-10T10:24:10.179Z,7924
2022-11-10T10:25:24.672Z,11116
2022-11-10T10:26:27.474Z,8960
2022-11-10T10:27:30.304Z,9704
2022-11-10T10:28:33.851Z,9396
2022-11-10T10:29:37.901Z,15464
2022-11-10T10:30:41.280Z,9436
2022-11-10T10:31:44.211Z,9056
2022-11-10T10:32:47.299Z,9224
2022-11-10T10:33:50.108Z,11096
2022-11-10T10:34:53.453Z,8712
2022-11-10T10:35:57.163Z,8700
2022-11-10T10:37:00.571Z,8164
2022-11-10T10:38:03.331Z,7664
2022-11-10T10:39:07.091Z,10380
2022-11-10T10:40:10.257Z,10328
2022-11-10T10:41:12.860Z,12160
2022-11-10T10:42:25.911Z,13680
2022-11-10T10:43:28.516Z,12748
2022-11-10T10:44:31.898Z,15412
2022-11-10T10:45:34.716Z,15160
2022-11-10T10:46:37.840Z,9800
2022-11-10T10:47:41.209Z,9668
2022-11-10T10:48:47.767Z,7232
2022-11-10T10:50:33.619Z,6120
2022-11-10T10:51:36.133Z,7732
2022-11-10T10:52:39.820Z,7760
2022-11-10T10:53:43.198Z,6472
2022-11-10T10:54:47.307Z,7384
2022-11-10T10:55:49.824Z,7172
2022-11-10T10:56:53.563Z,7212
2022-11-10T10:57:57.002Z,6420
2022-11-10T10:59:00.084Z,6684
2022-11-10T11:00:03.244Z,6404
2022-11-10T11:01:06.985Z,6060
2022-11-10T11:02:10.632Z,5240
2022-11-10T11:03:13.456Z,5772
2022-11-10T11:04:16.535Z,5180
2022-11-10T11:05:19.066Z,4712
2022-11-10T11:06:22.154Z,5748
2022-11-10T11:07:25.061Z,6540
2022-11-10T11:08:28.557Z,6020
2022-11-10T11:09:31.898Z,6900
2022-11-10T11:10:35.787Z,7804
2022-11-10T11:11:38.903Z,9612
2022-11-10T11:12:41.985Z,8748
2022-11-10T11:13:45.958Z,10712
2022-11-10T11:14:49.239Z,13664
2022-11-10T11:15:52.036Z,12400
2022-11-10T11:16:54.840Z,16576
2022-11-10T11:17:57.923Z,13372
2022-11-10T11:19:01.330Z,13916
2022-11-10T11:20:04.127Z,17236
2022-11-10T11:21:07.670Z,14700
2022-11-10T11:22:10.734Z,11764
2022-11-10T11:23:14.877Z,10664
2022-11-10T11:24:17.920Z,6760
2022-11-10T11:25:21.276Z,5404
2022-11-10T11:26:24.373Z,4188
2022-11-10T11:27:27.195Z,4276
2022-11-10T11:28:30.916Z,4536
2022-11-10T11:29:34.781Z,3572
2022-11-10T11:30:37.895Z,5500
2022-11-10T11:31:43.142Z,6208
2022-11-10T11:32:46.878Z,8188
2022-11-10T11:33:49.932Z,7940
2022-11-10T11:34:52.663Z,8904
2022-11-10T11:35:55.459Z,8572
2022-11-10T11:36:58.324Z,5916
2022-11-10T11:38:01.575Z,4456
2022-11-10T11:39:03.757Z,6096
2022-11-10T11:40:07.515Z,8340
2022-11-10T11:41:10.251Z,14380
2022-11-10T11:42:13.727Z,12652
2022-11-10T11:43:16.717Z,11620
2022-11-10T11:44:20.446Z,10716
2022-11-10T11:45:22.887Z,9920
2022-11-10T11:46:25.885Z,10968
2022-11-10T11:47:29.024Z,14564
2022-11-10T11:48:32.072Z,14360
2022-11-10T11:49:35.489Z,19904
2022-11-10T11:50:39.313Z,22912
2022-11-10T11:51:42.335Z,9472
2022-11-10T11:52:45.063Z,8888
2022-11-10T11:53:48.876Z,14144
2022-11-10T11:54:52.340Z,13308
2022-11-10T11:55:55.464Z,8680
2022-11-10T11:56:58.841Z,7504
2022-11-10T11:58:02.577Z,7096
2022-11-10T11:59:05.146Z,7532
2022-11-10T12:00:08.767Z,7488
2022-11-10T12:01:12.211Z,9012
2022-11-10T12:02:15.975Z,8764
2022-11-10T12:03:19.789Z,9384
2022-11-10T12:04:22.514Z,9168
2022-11-10T12:05:25.964Z,8748
2022-11-10T12:06:29.798Z,8272
2022-11-10T12:07:32.763Z,9276
2022-11-10T12:08:36.117Z,9608
2022-11-10T12:09:38.733Z,17724
2022-11-10T12:10:43.365Z,21536
2022-11-10T12:11:47.200Z,17392
2022-11-10T12:12:50.187Z,14084
2022-11-10T12:13:53.959Z,14420
2022-11-10T12:14:57.052Z,16160
2022-11-10T12:15:59.497Z,16656
2022-11-10T12:17:02.575Z,13152
2022-11-10T12:18:05.453Z,13664
2022-11-10T12:19:08.997Z,14124
2022-11-10T12:20:11.905Z,15052
2022-11-10T12:21:15.704Z,15416
2022-11-10T12:22:19.090Z,15156
2022-11-10T12:23:22.370Z,15716
2022-11-10T12:24:25.828Z,17036
2022-11-10T12:25:29.008Z,19840
2022-11-10T12:26:31.746Z,16788
2022-11-10T12:27:35.449Z,13920
2022-11-10T12:28:38.810Z,13056
2022-11-10T12:29:42.589Z,9776
2022-11-10T12:30:45.980Z,9220
2022-11-10T12:31:48.777Z,9080
2022-11-10T12:32:51.772Z,9560
2022-11-10T12:33:54.849Z,9004
2022-11-10T12:34:58.575Z,9008
2022-11-10T12:36:01.654Z,7260
2022-11-10T12:37:04.896Z,7460
2022-11-10T12:38:08.551Z,8052
2022-11-10T12:39:11.272Z,8504
2022-11-10T12:40:14.992Z,9180
2022-11-10T12:41:18.444Z,11332
2022-11-10T12:42:21.536Z,22176
2022-11-10T12:43:25.067Z,24480
2022-11-10T12:44:28.137Z,24224
2022-11-10T12:45:31.651Z,24512
2022-11-10T12:46:34.453Z,21184
2022-11-10T12:47:37.432Z,17228
2022-11-10T12:48:40.873Z,16340
2022-11-10T12:49:43.955Z,16424
2022-11-10T12:50:46.753Z,14252
2022-11-10T12:51:49.570Z,14384
2022-11-10T12:52:52.993Z,14280
2022-11-10T12:53:56.415Z,13524
2022-11-10T12:54:58.938Z,13908
2022-11-10T12:56:02.372Z,13248
2022-11-10T12:57:05.203Z,12604
2022-11-10T12:58:07.748Z,12192
2022-11-10T12:59:11.444Z,10668
2022-11-10T13:00:18.183Z,10740
2022-11-10T13:01:31.824Z,10732
2022-11-10T13:02:35.771Z,11076
2022-11-10T13:03:39.131Z,10636
2022-11-10T13:04:41.926Z,11680
2022-11-10T13:05:44.448Z,12484
2022-11-10T13:06:47.634Z,13164
2022-11-10T13:07:51.585Z,12636
2022-11-10T13:08:54.933Z,11792
2022-11-10T13:09:58.095Z,11608
2022-11-10T13:11:00.883Z,11536
2022-11-10T13:12:03.210Z,11296
2022-11-10T13:13:06.559Z,11592
2022-11-10T13:14:09.691Z,15800
2022-11-10T13:15:12.412Z,16304
2022-11-10T13:16:15.311Z,15572
2022-11-10T13:17:18.854Z,13548
2022-11-10T13:18:22.412Z,11204
2022-11-10T13:19:26.615Z,8864
2022-11-10T13:20:31.410Z,7928
2022-11-10T13:21:35.454Z,6880
2022-11-10T13:22:37.975Z,5304
2022-11-10T13:23:40.691Z,4024
2022-11-10T13:24:44.301Z,3752
2022-11-10T13:25:48.137Z,4092
2022-11-10T13:26:51.516Z,4436
2022-11-10T13:27:55.196Z,4728
2022-11-10T13:28:58.858Z,4684
2022-11-10T13:30:01.772Z,3616
2022-11-10T13:31:05.264Z,3104
2022-11-10T13:32:08.446Z,2952
2022-11-10T13:33:11.971Z,3320
2022-11-10T13:34:15.317Z,4004
2022-11-10T13:35:18.493Z,5628
2022-11-10T13:36:21.581Z,5940
2022-11-10T13:37:24.302Z,5984
2022-11-10T13:38:27.102Z,5452
2022-11-10T13:39:30.503Z,5360
2022-11-10T13:40:33.951Z,4980
2022-11-10T13:41:36.701Z,5260
2022-11-10T13:42:44.614Z,4752
2022-11-10T13:43:49.756Z,4340
2022-11-10T13:44:53.207Z,4596
2022-11-10T13:45:56.556Z,5080
2022-11-10T13:47:00.035Z,4792
2022-11-10T13:48:02.605Z,3984
2022-11-10T13:49:06.397Z,3620
2022-11-10T13:50:17.896Z,3280
2022-11-10T13:51:21.044Z,3432
2022-11-10T13:52:24.406Z,3672
2022-11-10T13:53:28.105Z,3640
2022-11-10T13:54:31.282Z,3884
2022-11-10T13:55:34.711Z,3960
2022-11-10T13:56:37.393Z,4624
2022-11-10T13:57:40.431Z,4780
2022-11-10T13:58:42.959Z,4212
2022-11-10T13:59:45.584Z,3780
2022-11-10T14:00:48.531Z,3696
2022-11-10T14:01:51.329Z,3188
2022-11-10T14:02:55.486Z,2876
2022-11-10T14:03:59.143Z,2320
2022-11-10T14:05:03.823Z,2272
2022-11-10T14:06:06.068Z,2252
2022-11-10T14:07:09.105Z,2320
2022-11-10T14:08:12.917Z,2100
2022-11-10T14:09:16.366Z,1916
2022-11-10T14:10:18.332Z,1852
2022-11-10T14:11:21.127Z,1732
2022-11-10T14:12:25.266Z,1660
2022-11-10T14:13:28.989Z,1400
2022-11-10T14:14:32.348Z,1464
2022-11-10T14:15:35.221Z,1428
2022-11-10T14:16:38.039Z,1568
2022-11-10T14:17:40.938Z,1528
2022-11-10T14:18:45.013Z,1708
2022-11-10T14:19:47.841Z,1848
2022-11-10T14:20:51.654Z,1796
2022-11-10T14:21:57.985Z,1712
2022-11-10T14:23:01.354Z,1668
2022-11-10T14:24:04.731Z,1472
2022-11-10T14:25:08.466Z,1412
2022-11-10T14:26:11.694Z,1312
2022-11-10T14:27:15.425Z,1308
2022-11-10T14:28:19.110Z,1320
2022-11-10T14:29:25.054Z,1336
2022-11-10T14:30:27.779Z,1116
2022-11-10T14:31:30.963Z,880
2022-11-10T14:32:34.696Z,884
2022-11-10T14:33:37.958Z,1116
2022-11-10T14:34:41.923Z,1296
2022-11-10T14:35:45.101Z,1292
2022-11-10T14:36:48.781Z,1296
2022-11-10T14:37:51.870Z,1172
2022-11-10T14:38:55.047Z,1088
2022-11-10T14:39:58.430Z,1092